createdAt,value
2023-11-24T00:01:41.809Z,5.00
2023-11-24T00:04:08.499Z,4.65
2023-11-24T00:06:35.121Z,4.70
2023-11-24T00:09:01.710Z,4.80
2023-11-24T00:11:28.412Z,5.18
2023-11-24T00:13:55.157Z,4.70
2023-11-24T00:16:22.522Z,5.00
2023-11-24T00:18:49.378Z,4.75
2023-11-24T00:21:16.281Z,5.10
2023-11-24T00:23:42.937Z,5.25
2023-11-24T00:26:10.221Z,5.18
2023-11-24T00:28:47.722Z,5.55
2023-11-24T00:31:14.349Z,5.28
2023-11-24T00:33:41.105Z,5.40
2023-11-24T00:36:08.036Z,5.47
2023-11-24T00:38:34.900Z,5.45
2023-11-24T00:41:01.520Z,5.30
2023-11-24T00:43:28.139Z,5.38
2023-11-24T00:45:54.929Z,5.28
2023-11-24T00:48:22.744Z,5.15
2023-11-24T00:50:49.384Z,4.57
2023-11-24T00:53:16.040Z,4.30
2023-11-24T00:55:42.631Z,4.00
2023-11-24T00:58:09.870Z,4.30
2023-11-24T01:00:39.335Z,3.85
2023-11-24T01:03:06.565Z,3.90
2023-11-24T01:05:34.400Z,3.78
2023-11-24T01:08:01.578Z,3.65
2023-11-24T01:10:28.464Z,3.50
2023-11-24T01:12:55.224Z,3.70
2023-11-24T01:15:22.700Z,3.40
2023-11-24T01:17:49.837Z,3.55
2023-11-24T01:20:17.609Z,3.60
2023-11-24T01:22:45.524Z,3.40
2023-11-24T01:25:13.038Z,3.28
2023-11-24T01:27:39.957Z,2.97
2023-11-24T01:30:10.363Z,3.45
2023-11-24T01:32:37.883Z,3.20
2023-11-24T01:35:05.247Z,3.50
2023-11-24T01:37:31.895Z,3.10
2023-11-24T01:39:58.557Z,3.53
2023-11-24T01:42:25.209Z,3.80
2023-11-24T01:44:51.813Z,3.65
2023-11-24T01:47:18.472Z,3.50
2023-11-24T01:49:46.976Z,3.80
2023-11-24T01:52:15.196Z,3.58
2023-11-24T01:54:43.515Z,3.70
2023-11-24T01:57:12.486Z,3.65
2023-11-24T01:59:40.364Z,3.47
2023-11-24T02:02:07.355Z,3.97
2023-11-24T02:04:34.094Z,4.10
2023-11-24T02:07:03.223Z,3.78
2023-11-24T02:09:31.393Z,3.63
2023-11-24T02:11:58.097Z,3.75
2023-11-24T02:14:24.968Z,3.28
2023-11-24T02:16:51.796Z,3.10
2023-11-24T02:19:18.408Z,3.17
2023-11-24T02:21:46.358Z,3.03
2023-11-24T02:24:13.898Z,3.30
2023-11-24T02:26:40.996Z,3.30
2023-11-24T02:29:09.612Z,3.03
2023-11-24T02:31:36.646Z,3.33
2023-11-24T02:34:04.644Z,3.00
2023-11-24T02:36:34.017Z,3.25
2023-11-24T02:39:00.579Z,3.25
2023-11-24T02:41:27.183Z,3.08
2023-11-24T02:43:53.768Z,3.30
2023-11-24T02:46:20.397Z,2.85
2023-11-24T02:48:48.250Z,2.97
2023-11-24T02:51:15.739Z,3.00
2023-11-24T02:53:43.635Z,2.63
2023-11-24T02:56:10.191Z,2.78
2023-11-24T02:58:37.920Z,2.75
2023-11-24T03:01:06.610Z,2.50
2023-11-24T03:03:33.499Z,2.88
2023-11-24T03:06:06.344Z,2.55
2023-11-24T03:08:36.105Z,2.50
2023-11-24T03:11:07.267Z,2.70
2023-11-24T03:13:35.397Z,2.60
2023-11-24T03:16:09.208Z,3.03
2023-11-24T03:18:36.560Z,2.80
2023-11-24T03:21:03.086Z,2.80
2023-11-24T03:23:29.656Z,2.90
2023-11-24T03:25:57.291Z,2.70
2023-11-24T03:28:24.961Z,2.90
2023-11-24T03:30:51.514Z,2.63
2023-11-24T03:33:18.186Z,2.85
2023-11-24T03:35:44.796Z,3.00
2023-11-24T03:38:11.379Z,2.83
2023-11-24T03:40:37.995Z,3.08
2023-11-24T03:43:05.352Z,2.90
2023-11-24T03:45:32.020Z,2.70
2023-11-24T03:47:58.656Z,3.00
2023-11-24T03:50:25.243Z,2.60
2023-11-24T03:52:52.163Z,2.65
2023-11-24T03:55:18.751Z,2.85
2023-11-24T03:57:46.237Z,2.78
2023-11-24T04:00:14.659Z,2.50
2023-11-24T04:02:42.821Z,2.92
2023-11-24T04:05:14.368Z,2.90
2023-11-24T04:07:41.011Z,2.80
2023-11-24T04:10:08.648Z,2.67
2023-11-24T04:12:35.335Z,2.72
2023-11-24T04:15:02.650Z,2.63
2023-11-24T04:17:29.342Z,2.50
2023-11-24T04:19:55.886Z,2.60
2023-11-24T04:22:22.596Z,2.60
2023-11-24T04:24:49.721Z,2.50
2023-11-24T04:27:16.366Z,2.60
2023-11-24T04:29:42.910Z,3.00
2023-11-24T04:32:10.670Z,2.45
2023-11-24T04:34:37.288Z,2.40
2023-11-24T04:37:04.532Z,2.72
2023-11-24T04:39:31.125Z,2.67
2023-11-24T04:41:57.680Z,2.70
2023-11-24T04:44:24.341Z,2.83
2023-11-24T04:46:50.981Z,2.85
2023-11-24T04:49:18.771Z,2.60
2023-11-24T04:51:45.360Z,2.90
2023-11-24T04:54:11.991Z,2.72
2023-11-24T04:56:38.566Z,2.60
2023-11-24T04:59:06.714Z,2.80
2023-11-24T05:01:33.336Z,2.92
2023-11-24T05:04:00.754Z,2.60
2023-11-24T05:06:27.528Z,2.42
2023-11-24T05:08:54.114Z,2.70
2023-11-24T05:11:20.734Z,2.60
2023-11-24T05:13:48.755Z,2.78
2023-11-24T05:16:15.500Z,2.63
2023-11-24T05:18:42.087Z,2.83
2023-11-24T05:21:09.436Z,3.10
2023-11-24T05:23:36.678Z,2.58
2023-11-24T05:26:03.296Z,2.80
2023-11-24T05:28:29.846Z,2.75
2023-11-24T05:30:56.773Z,2.90
2023-11-24T05:33:23.331Z,2.83
2023-11-24T05:35:50.998Z,2.97
2023-11-24T05:38:17.511Z,2.95
2023-11-24T05:40:46.490Z,2.90
2023-11-24T05:43:13.174Z,2.55
2023-11-24T05:45:39.735Z,2.63
2023-11-24T05:48:06.360Z,2.85
2023-11-24T05:50:32.908Z,2.95
2023-11-24T05:52:59.486Z,2.80
2023-11-24T05:55:26.003Z,2.80
2023-11-24T05:57:52.569Z,2.58
2023-11-24T06:00:19.742Z,2.60
2023-11-24T06:02:47.190Z,3.08
2023-11-24T06:05:14.026Z,2.65
2023-11-24T06:07:41.395Z,2.60
2023-11-24T06:10:10.523Z,3.03
2023-11-24T06:12:37.233Z,3.05
2023-11-24T06:15:04.764Z,2.65
2023-11-24T06:17:31.362Z,2.50
2023-11-24T06:19:57.936Z,2.30
2023-11-24T06:22:24.489Z,2.75
2023-11-24T06:24:51.061Z,2.22
2023-11-24T06:27:17.719Z,2.33
2023-11-24T06:29:44.225Z,2.25
2023-11-24T06:32:12.803Z,2.08
2023-11-24T06:34:39.479Z,2.40
2023-11-24T06:37:06.170Z,2.40
2023-11-24T06:39:32.948Z,2.28
2023-11-24T06:42:00.365Z,2.30
2023-11-24T06:44:27.377Z,2.00
2023-11-24T06:46:54.059Z,2.38
2023-11-24T06:49:20.832Z,2.30
2023-11-24T06:51:50.075Z,2.17
2023-11-24T06:54:16.727Z,2.30
2023-11-24T06:56:43.254Z,1.88
2023-11-24T06:59:09.962Z,2.08
2023-11-24T07:01:36.986Z,2.13
2023-11-24T07:04:04.204Z,2.00
2023-11-24T07:06:31.374Z,2.00
2023-11-24T07:08:58.021Z,1.85
2023-11-24T07:11:24.711Z,2.00
2023-11-24T07:13:52.433Z,1.80
2023-11-24T07:16:19.251Z,2.00
2023-11-24T07:18:46.103Z,2.15
2023-11-24T07:21:12.768Z,2.42
2023-11-24T07:23:39.360Z,2.40
2023-11-24T07:26:08.992Z,3.20
2023-11-24T07:28:36.788Z,2.50
2023-11-24T07:31:05.238Z,2.47
2023-11-24T07:33:32.624Z,2.50
2023-11-24T07:35:59.228Z,2.50
2023-11-24T07:38:26.413Z,2.60
2023-11-24T07:40:52.966Z,3.00
2023-11-24T07:43:19.580Z,3.28
2023-11-24T07:45:51.847Z,2.75
2023-11-24T07:48:19.294Z,2.58
2023-11-24T07:50:45.944Z,2.50
2023-11-24T07:53:14.801Z,2.70
2023-11-24T07:55:42.080Z,2.30
2023-11-24T07:58:08.897Z,2.00
2023-11-24T08:00:36.170Z,2.28
2023-11-24T08:03:03.273Z,2.33
2023-11-24T08:05:29.924Z,2.38
2023-11-24T08:07:56.664Z,2.30
2023-11-24T08:10:23.232Z,2.20
2023-11-24T08:12:49.854Z,2.40
2023-11-24T08:15:16.562Z,2.53
2023-11-24T08:17:44.430Z,2.30
2023-11-24T08:20:14.629Z,2.45
2023-11-24T08:22:41.256Z,2.63
2023-11-24T08:25:10.242Z,2.70
2023-11-24T08:27:37.196Z,2.30
2023-11-24T08:30:08.737Z,2.30
2023-11-24T08:32:35.398Z,2.65
2023-11-24T08:35:01.967Z,2.58
2023-11-24T08:37:28.869Z,2.60
2023-11-24T08:39:56.157Z,1.95
2023-11-24T08:42:26.004Z,2.00
2023-11-24T08:44:52.595Z,2.00
2023-11-24T08:47:19.563Z,2.30
2023-11-24T08:49:46.097Z,2.40
2023-11-24T08:52:12.623Z,1.90
2023-11-24T08:54:39.337Z,1.70
2023-11-24T08:57:06.146Z,1.77
2023-11-24T08:59:32.692Z,1.70
2023-11-24T09:01:59.389Z,1.52
2023-11-24T09:04:28.831Z,1.75
2023-11-24T09:06:55.476Z,1.90
2023-11-24T09:09:22.203Z,1.77
2023-11-24T09:11:49.055Z,1.83
2023-11-24T09:14:15.764Z,1.80
2023-11-24T09:16:42.666Z,2.00
2023-11-24T09:19:10.055Z,2.35
2023-11-24T09:21:36.960Z,2.15
2023-11-24T09:24:03.747Z,1.92
2023-11-24T09:26:30.373Z,1.85
2023-11-24T09:28:56.962Z,2.40
2023-11-24T09:31:23.610Z,1.92
2023-11-24T09:33:50.194Z,2.00
2023-11-24T09:36:16.699Z,1.80
2023-11-24T09:38:45.452Z,2.10
2023-11-24T09:41:15.190Z,1.90
2023-11-24T09:43:42.751Z,1.80
2023-11-24T09:46:10.548Z,2.10
2023-11-24T09:48:45.882Z,1.92
2023-11-24T09:51:18.303Z,2.00
2023-11-24T09:53:45.533Z,2.17
2023-11-24T09:56:12.330Z,2.13
2023-11-24T09:58:38.959Z,1.75
2023-11-24T10:01:16.428Z,2.00
2023-11-24T10:03:48.504Z,2.30
2023-11-24T10:06:15.418Z,2.13
2023-11-24T10:08:42.057Z,1.90
2023-11-24T10:11:16.018Z,2.00
2023-11-24T10:13:44.750Z,2.13
2023-11-24T10:16:12.396Z,2.17
2023-11-24T10:18:40.216Z,1.90
2023-11-24T10:21:17.020Z,2.20
2023-11-24T10:23:49.851Z,1.88
2023-11-24T10:26:17.592Z,2.25
2023-11-24T10:28:47.535Z,2.00
2023-11-24T10:31:15.051Z,1.90
2023-11-24T10:33:42.037Z,2.08
2023-11-24T10:36:09.300Z,1.80
2023-11-24T10:38:40.098Z,2.15
2023-11-24T10:41:12.843Z,2.40
2023-11-24T10:43:39.522Z,2.10
2023-11-24T10:46:14.125Z,2.58
2023-11-24T10:49:07.588Z,2.17
2023-11-24T10:51:34.273Z,2.30
2023-11-24T10:54:03.598Z,2.10
2023-11-24T10:56:32.677Z,2.50
2023-11-24T10:59:00.731Z,2.60
2023-11-24T11:01:28.483Z,2.45
2023-11-24T11:04:00.474Z,2.47
2023-11-24T11:06:43.923Z,2.25
2023-11-24T11:09:25.036Z,2.50
2023-11-24T11:12:14.316Z,2.13
2023-11-24T11:14:42.168Z,2.35
2023-11-24T11:17:21.018Z,2.90
2023-11-24T11:20:13.706Z,2.95
2023-11-24T11:22:42.228Z,2.83
2023-11-24T11:25:14.983Z,2.30
2023-11-24T11:27:43.725Z,1.65
2023-11-24T11:30:22.875Z,2.00
2023-11-24T11:33:11.497Z,2.00
2023-11-24T11:35:42.463Z,1.70
2023-11-24T11:38:12.765Z,1.90
2023-11-24T11:40:39.519Z,2.00
2023-11-24T11:43:10.740Z,2.03
2023-11-24T11:45:51.367Z,2.42
2023-11-24T11:48:18.531Z,2.85
2023-11-24T11:51:05.388Z,2.33
2023-11-24T11:53:34.929Z,2.58
2023-11-24T11:56:06.990Z,2.90
2023-11-24T11:58:36.020Z,2.80
2023-11-24T12:01:06.195Z,2.50
2023-11-24T12:03:34.734Z,2.35
2023-11-24T12:06:08.230Z,2.40
2023-11-24T12:08:35.347Z,2.53
2023-11-24T12:11:01.920Z,2.58
2023-11-24T12:13:30.072Z,2.58
2023-11-24T12:16:00.330Z,2.78
2023-11-24T12:18:27.220Z,2.80
2023-11-24T12:20:54.199Z,2.92
2023-11-24T12:23:22.923Z,3.03
2023-11-24T12:25:49.877Z,2.70
2023-11-24T12:28:17.343Z,3.45
2023-11-24T12:30:44.940Z,3.42
2023-11-24T12:33:20.129Z,3.40
2023-11-24T12:35:56.391Z,2.70
2023-11-24T12:38:23.432Z,3.00
2023-11-24T12:40:51.722Z,2.95
2023-11-24T12:43:22.643Z,3.40
2023-11-24T12:45:50.625Z,3.73
2023-11-24T12:48:24.001Z,2.90
2023-11-24T12:50:54.048Z,3.13
2023-11-24T12:53:21.330Z,3.22
2023-11-24T12:55:48.237Z,3.10
2023-11-24T12:58:15.063Z,3.08
2023-11-24T13:00:43.429Z,3.13
2023-11-24T13:03:11.352Z,2.92
2023-11-24T13:05:40.883Z,3.20
2023-11-24T13:08:08.042Z,3.00
2023-11-24T13:10:35.737Z,3.08
2023-11-24T13:13:03.065Z,3.00
2023-11-24T13:15:29.960Z,3.30
2023-11-24T13:17:57.282Z,3.17
2023-11-24T13:20:29.492Z,3.08
2023-11-24T13:22:56.630Z,3.20
2023-11-24T13:25:30.306Z,3.08
2023-11-24T13:27:57.926Z,3.30
2023-11-24T13:30:26.269Z,3.58
2023-11-24T13:32:52.841Z,3.50
2023-11-24T13:35:21.245Z,3.20
2023-11-24T13:37:49.311Z,3.20
2023-11-24T13:40:21.137Z,3.65
2023-11-24T13:45:14.696Z,3.17
2023-11-24T13:47:42.174Z,3.60
2023-11-24T13:50:10.340Z,3.90
2023-11-24T13:52:37.088Z,4.07
2023-11-24T13:55:06.910Z,4.55
2023-11-24T13:57:33.765Z,3.15
2023-11-24T14:00:00.431Z,2.92
2023-11-24T14:02:27.111Z,3.28
2023-11-24T14:04:55.660Z,3.20
2023-11-24T14:07:22.498Z,3.83
2023-11-24T14:09:50.086Z,3.80
2023-11-24T14:12:16.858Z,3.63
2023-11-24T14:14:44.166Z,3.70
2023-11-24T14:17:10.937Z,4.07
2023-11-24T14:19:37.511Z,3.17
2023-11-24T14:22:05.832Z,3.42
2023-11-24T14:24:33.842Z,3.85
2023-11-24T14:27:00.721Z,3.47
2023-11-24T14:29:29.173Z,3.05
2023-11-24T14:31:56.099Z,2.50
2023-11-24T14:34:22.761Z,2.55
2023-11-24T14:36:50.100Z,2.20
2023-11-24T14:41:59.365Z,2.65
2023-11-24T14:44:26.000Z,2.22
2023-11-24T14:46:53.047Z,2.97
2023-11-24T14:49:19.922Z,2.88
2023-11-24T14:51:48.741Z,3.25
2023-11-24T14:54:17.551Z,3.08
2023-11-24T14:56:44.751Z,2.90
2023-11-24T14:59:11.966Z,3.10
2023-11-24T15:01:39.910Z,2.92
2023-11-24T15:04:16.833Z,2.97
2023-11-24T15:06:51.036Z,2.50
2023-11-24T15:09:18.111Z,2.88
2023-11-24T15:11:45.182Z,2.50
2023-11-24T15:14:15.567Z,2.92
2023-11-24T15:16:57.969Z,3.00
2023-11-24T15:19:27.142Z,2.88
2023-11-24T15:21:54.778Z,3.00
2023-11-24T15:24:21.430Z,3.45
2023-11-24T15:26:48.230Z,3.38
2023-11-24T15:29:17.642Z,2.80
2023-11-24T15:31:47.569Z,2.75
2023-11-24T15:34:14.855Z,2.83
2023-11-24T15:36:42.086Z,3.00
2023-11-24T15:39:31.833Z,3.17
2023-11-24T15:41:58.422Z,3.00
2023-11-24T15:44:27.906Z,2.95
2023-11-24T15:46:56.244Z,3.17
2023-11-24T15:49:22.957Z,3.05
2023-11-24T15:51:54.181Z,2.95
2023-11-24T15:54:25.316Z,3.08
2023-11-24T15:56:53.094Z,2.70
2023-11-24T15:59:25.664Z,3.03
2023-11-24T16:01:53.783Z,2.80
2023-11-24T16:04:22.642Z,2.60
2023-11-24T16:06:55.965Z,2.50
2023-11-24T16:09:26.933Z,2.60
2023-11-24T16:12:15.066Z,3.20
2023-11-24T16:14:44.107Z,2.58
2023-11-24T16:17:10.810Z,2.67
2023-11-24T16:19:37.688Z,2.80
2023-11-24T16:22:06.072Z,3.17
2023-11-24T16:24:32.868Z,2.58
2023-11-24T16:27:00.110Z,2.70
2023-11-24T16:29:26.787Z,2.72
2023-11-24T16:31:55.206Z,2.58
2023-11-24T16:34:26.443Z,2.58
2023-11-24T16:36:56.588Z,2.45
2023-11-24T16:39:24.154Z,2.00
2023-11-24T16:41:51.231Z,1.95
2023-11-24T16:44:18.033Z,1.90
2023-11-24T16:46:56.479Z,2.10
2023-11-24T16:49:23.223Z,2.00
2023-11-24T16:51:49.764Z,2.20
2023-11-24T16:54:16.482Z,2.03
2023-11-24T16:56:43.038Z,2.10
2023-11-24T16:59:09.675Z,2.25
2023-11-24T17:01:36.318Z,2.70
2023-11-24T17:04:03.184Z,2.80
2023-11-24T17:06:29.906Z,2.30
2023-11-24T17:08:56.447Z,2.50
2023-11-24T17:11:23.013Z,2.72
2023-11-24T17:13:49.570Z,2.60
2023-11-24T17:16:16.544Z,2.75
2023-11-24T17:18:43.251Z,3.08
2023-11-24T17:21:09.849Z,2.30
2023-11-24T17:23:41.323Z,2.60
2023-11-24T17:26:10.850Z,2.17
2023-11-24T17:28:37.880Z,2.60
2023-11-24T17:31:08.902Z,2.50
2023-11-24T17:33:40.491Z,2.00
2023-11-24T17:36:09.019Z,1.20
2023-11-24T17:38:35.733Z,2.45
2023-11-24T17:41:02.511Z,2.10
2023-11-24T17:43:30.324Z,2.75
2023-11-24T17:45:57.577Z,2.97
2023-11-24T17:48:24.602Z,2.70
2023-11-24T17:50:52.052Z,2.55
2023-11-24T17:53:19.593Z,2.60
2023-11-24T17:55:46.172Z,2.58
2023-11-24T17:58:12.777Z,2.80
2023-11-24T18:00:40.985Z,3.13
2023-11-24T18:03:08.598Z,3.03
2023-11-24T18:05:35.338Z,3.00
2023-11-24T18:08:04.108Z,3.15
2023-11-24T18:10:31.030Z,2.97
2023-11-24T18:12:57.992Z,2.83
2023-11-24T18:15:24.677Z,2.65
2023-11-24T18:17:51.237Z,2.53
2023-11-24T18:20:18.780Z,2.80
2023-11-24T18:22:45.357Z,2.72
2023-11-24T18:25:13.305Z,2.30
2023-11-24T18:27:40.608Z,2.58
2023-11-24T18:30:11.082Z,2.80
2023-11-24T18:32:38.913Z,2.60
2023-11-24T18:35:06.078Z,2.70
2023-11-24T18:37:32.860Z,2.72
2023-11-24T18:40:01.806Z,3.35
2023-11-24T18:42:30.433Z,3.05
2023-11-24T18:44:57.078Z,3.83
2023-11-24T18:47:26.603Z,3.50
2023-11-24T18:49:54.200Z,3.58
2023-11-24T18:52:21.775Z,3.60
2023-11-24T18:54:49.410Z,3.00
2023-11-24T18:57:16.387Z,3.30
2023-11-24T18:59:42.957Z,3.13
2023-11-24T19:02:10.234Z,3.13
2023-11-24T19:04:37.360Z,3.53
2023-11-24T19:07:04.269Z,3.55
2023-11-24T19:09:30.891Z,3.65
2023-11-24T19:11:57.519Z,4.22
2023-11-24T19:14:24.179Z,4.18
2023-11-24T19:16:51.493Z,4.05
2023-11-24T19:19:18.381Z,4.20
2023-11-24T19:21:45.250Z,3.83
2023-11-24T19:24:11.841Z,3.78
2023-11-24T19:26:38.476Z,3.40
2023-11-24T19:29:10.727Z,3.88
2023-11-24T19:31:38.595Z,3.25
2023-11-24T19:34:06.866Z,3.70
2023-11-24T19:36:33.638Z,4.10
2023-11-24T19:39:01.162Z,3.47
2023-11-24T19:41:27.784Z,3.60
2023-11-24T19:43:54.360Z,4.03
2023-11-24T19:46:23.277Z,4.20
2023-11-24T19:48:51.801Z,3.95
2023-11-24T19:51:19.224Z,4.38
2023-11-24T19:53:49.227Z,3.60
2023-11-24T19:56:17.276Z,4.45
2023-11-24T19:58:43.869Z,4.43
2023-11-24T20:01:10.590Z,4.38
2023-11-24T20:03:39.700Z,4.72
2023-11-24T20:06:07.508Z,4.40
2023-11-24T20:08:34.477Z,3.90
2023-11-24T20:11:01.114Z,3.83
2023-11-24T20:13:27.718Z,3.78
2023-11-24T20:15:54.455Z,4.07
2023-11-24T20:18:21.079Z,4.13
2023-11-24T20:20:47.933Z,3.70
2023-11-24T20:23:14.644Z,3.47
2023-11-24T20:25:41.284Z,3.20
2023-11-24T20:28:10.501Z,3.38
2023-11-24T20:30:37.169Z,3.15
2023-11-24T20:33:03.809Z,3.20
2023-11-24T20:35:30.866Z,3.35
2023-11-24T20:37:57.789Z,3.50
2023-11-24T20:40:27.234Z,3.67
2023-11-24T20:42:53.845Z,3.30
2023-11-24T20:45:20.712Z,3.60
2023-11-24T20:47:49.865Z,3.40
2023-11-24T20:50:18.871Z,3.60
2023-11-24T20:52:46.324Z,3.72
2023-11-24T20:55:17.982Z,3.60
2023-11-24T21:00:12.685Z,3.60
2023-11-24T21:02:40.709Z,3.88
2023-11-24T21:05:13.065Z,3.22
2023-11-24T21:07:40.692Z,3.60
2023-11-24T21:10:07.517Z,3.80
2023-11-24T21:12:34.066Z,3.53
2023-11-24T21:15:00.651Z,3.88
2023-11-24T21:17:27.708Z,3.95
2023-11-24T21:19:54.332Z,3.75
2023-11-24T21:22:20.924Z,3.83
2023-11-24T21:24:47.598Z,3.75
2023-11-24T21:27:14.532Z,3.88
2023-11-24T21:29:41.129Z,3.97
2023-11-24T21:32:07.793Z,4.65
2023-11-24T21:34:34.500Z,4.57
2023-11-24T21:37:01.159Z,4.97
2023-11-24T21:39:27.688Z,4.15
2023-11-24T21:41:54.237Z,4.13
2023-11-24T21:44:20.791Z,4.38
2023-11-24T21:46:49.359Z,4.78
2023-11-24T21:49:16.406Z,4.40
2023-11-24T21:51:43.079Z,4.20
2023-11-24T21:54:10.011Z,4.65
2023-11-24T21:56:36.969Z,4.32
2023-11-24T21:59:03.680Z,4.00
2023-11-24T22:01:31.944Z,4.07
2023-11-24T22:03:59.158Z,3.95
2023-11-24T22:06:29.635Z,4.45
2023-11-24T22:08:56.439Z,5.00
2023-11-24T22:11:23.048Z,4.38
2023-11-24T22:13:49.670Z,4.20
2023-11-24T22:16:16.459Z,4.28
2023-11-24T22:18:43.933Z,4.32
2023-11-24T22:21:10.520Z,4.38
2023-11-24T22:23:37.097Z,4.20
2023-11-24T22:26:03.810Z,4.57
2023-11-24T22:28:30.495Z,4.13
2023-11-24T22:30:57.806Z,4.20
2023-11-24T22:33:24.544Z,4.50
2023-11-24T22:35:51.139Z,4.93
2023-11-24T22:38:17.746Z,4.55
2023-11-24T22:40:49.012Z,4.72
2023-11-24T22:43:15.985Z,5.15
2023-11-24T22:45:43.822Z,4.60
2023-11-24T22:48:13.604Z,4.50
2023-11-24T22:50:40.190Z,4.47
2023-11-24T22:53:06.840Z,4.43
2023-11-24T22:55:34.372Z,4.50
2023-11-24T22:58:01.069Z,4.25
2023-11-24T23:00:37.570Z,4.22
2023-11-24T23:03:04.718Z,4.07
2023-11-24T23:05:31.622Z,4.53
2023-11-24T23:07:58.263Z,4.05
2023-11-24T23:10:24.899Z,4.40
2023-11-24T23:12:51.714Z,4.70
2023-11-24T23:15:18.339Z,4.72
2023-11-24T23:17:45.524Z,4.97
2023-11-24T23:20:12.199Z,4.60
2023-11-24T23:22:38.846Z,4.40
2023-11-24T23:25:07.584Z,4.55
2023-11-24T23:27:36.021Z,3.88
2023-11-24T23:30:02.903Z,4.43
2023-11-24T23:32:29.518Z,4.40
2023-11-24T23:34:56.163Z,4.05
2023-11-24T23:37:22.804Z,4.40
2023-11-24T23:39:51.074Z,4.10
2023-11-24T23:42:18.238Z,4.32
2023-11-24T23:44:44.788Z,4.18
2023-11-24T23:47:11.418Z,3.53
2023-11-24T23:49:38.123Z,3.50
2023-11-24T23:52:05.934Z,3.42
2023-11-24T23:54:32.548Z,3.92
2023-11-24T23:56:59.107Z,3.13
2023-11-24T23:59:25.671Z,3.20
